createdAt,value
2023-11-25T00:00:55.571Z,2.90
2023-11-25T00:03:22.812Z,2.90
2023-11-25T00:05:50.114Z,2.80
2023-11-25T00:08:16.709Z,2.90
2023-11-25T00:10:43.340Z,2.90
2023-11-25T00:13:10.277Z,2.90
2023-11-25T00:15:36.956Z,2.90
2023-11-25T00:18:04.351Z,2.90
2023-11-25T00:20:31.053Z,2.90
2023-11-25T00:22:57.719Z,2.90
2023-11-25T00:25:25.496Z,2.90
2023-11-25T00:27:52.237Z,2.90
2023-11-25T00:30:20.027Z,2.90
2023-11-25T00:32:47.229Z,2.80
2023-11-25T00:35:15.156Z,2.80
2023-11-25T00:37:42.259Z,2.80
2023-11-25T00:40:17.746Z,2.80
2023-11-25T00:42:44.678Z,2.80
2023-11-25T00:45:11.707Z,2.80
2023-11-25T00:47:42.756Z,2.80
2023-11-25T00:50:11.206Z,2.80
2023-11-25T00:52:39.081Z,2.90
2023-11-25T00:55:07.658Z,2.90
2023-11-25T00:57:34.722Z,2.90
2023-11-25T01:00:01.389Z,2.80
2023-11-25T01:02:29.146Z,2.80
2023-11-25T01:04:56.087Z,2.70
2023-11-25T01:07:22.807Z,2.70
2023-11-25T01:09:49.870Z,2.70
2023-11-25T01:12:16.509Z,2.70
2023-11-25T01:14:43.215Z,2.70
2023-11-25T01:17:10.192Z,2.70
2023-11-25T01:19:37.611Z,2.70
2023-11-25T01:22:05.072Z,2.70
2023-11-25T01:24:31.977Z,2.70
2023-11-25T01:26:59.218Z,2.70
2023-11-25T01:29:26.072Z,2.70
2023-11-25T01:31:52.778Z,2.70
2023-11-25T01:34:19.519Z,2.70
2023-11-25T01:36:46.313Z,2.70
2023-11-25T01:39:14.816Z,2.70
2023-11-25T01:41:41.626Z,2.70
2023-11-25T01:44:08.587Z,2.70
2023-11-25T01:46:39.953Z,2.70
2023-11-25T01:49:11.788Z,2.60
2023-11-25T01:51:45.433Z,2.60
2023-11-25T01:54:16.022Z,2.60
2023-11-25T01:56:45.773Z,2.60
2023-11-25T01:59:15.310Z,2.50
2023-11-25T02:01:42.609Z,2.60
2023-11-25T02:04:09.528Z,2.60
2023-11-25T02:06:36.328Z,2.50
2023-11-25T02:09:04.411Z,2.50
2023-11-25T02:11:31.047Z,2.40
2023-11-25T02:13:57.664Z,2.50
2023-11-25T02:16:24.605Z,2.50
2023-11-25T02:18:52.661Z,2.50
2023-11-25T02:21:20.864Z,2.50
2023-11-25T02:23:48.485Z,2.50
2023-11-25T02:26:15.305Z,2.50
2023-11-25T02:28:42.111Z,2.40
2023-11-25T02:31:09.099Z,2.40
2023-11-25T02:33:36.059Z,2.40
2023-11-25T02:36:04.268Z,2.40
2023-11-25T02:38:31.418Z,2.40
2023-11-25T02:40:58.130Z,2.40
2023-11-25T02:43:24.801Z,2.40
2023-11-25T02:45:51.412Z,2.40
2023-11-25T02:48:18.375Z,2.30
2023-11-25T02:50:45.278Z,2.30
2023-11-25T02:53:12.249Z,2.40
2023-11-25T02:55:38.898Z,2.40
2023-11-25T02:58:05.584Z,2.40
2023-11-25T03:00:37.687Z,2.40
2023-11-25T03:03:23.598Z,2.40
2023-11-25T03:05:54.158Z,2.40
2023-11-25T03:08:23.415Z,2.40
2023-11-25T03:10:51.969Z,2.40
2023-11-25T03:13:18.768Z,2.30
2023-11-25T03:15:45.752Z,2.30
2023-11-25T03:18:12.531Z,2.40
2023-11-25T03:20:40.884Z,2.40
2023-11-25T03:23:08.106Z,2.50
2023-11-25T03:25:35.071Z,2.50
2023-11-25T03:28:05.940Z,2.60
2023-11-25T03:30:32.916Z,2.60
2023-11-25T03:32:59.599Z,2.70
2023-11-25T03:35:26.278Z,2.80
2023-11-25T03:37:53.138Z,2.90
2023-11-25T03:40:19.821Z,2.90
2023-11-25T03:42:46.491Z,3.10
2023-11-25T03:45:16.811Z,3.10
2023-11-25T03:47:45.801Z,3.20
2023-11-25T03:50:16.675Z,3.20
2023-11-25T03:52:43.653Z,3.20
2023-11-25T03:55:14.715Z,3.20
2023-11-25T03:57:42.601Z,3.20
2023-11-25T04:00:37.711Z,3.20
2023-11-25T04:03:04.471Z,3.10
2023-11-25T04:05:31.846Z,3.10
2023-11-25T04:07:58.499Z,3.10
2023-11-25T04:10:25.201Z,3.00
2023-11-25T04:12:53.284Z,3.00
2023-11-25T04:15:23.412Z,3.00
2023-11-25T04:17:51.778Z,3.00
2023-11-25T04:20:25.081Z,3.00
2023-11-25T04:22:51.890Z,3.00
2023-11-25T04:25:19.937Z,3.00
2023-11-25T04:27:48.694Z,3.00
2023-11-25T04:30:19.455Z,3.00
2023-11-25T04:32:48.302Z,3.00
2023-11-25T04:35:15.487Z,2.90
2023-11-25T04:37:46.668Z,2.90
2023-11-25T04:40:14.744Z,2.90
2023-11-25T04:42:42.884Z,2.90
2023-11-25T04:45:16.349Z,2.90
2023-11-25T04:47:47.288Z,2.90
2023-11-25T04:50:15.041Z,3.00
2023-11-25T04:52:42.506Z,2.90
2023-11-25T04:55:16.235Z,3.00
2023-11-25T04:57:43.844Z,3.00
2023-11-25T05:00:12.122Z,2.90
2023-11-25T05:02:39.788Z,2.90
2023-11-25T05:05:07.706Z,2.90
2023-11-25T05:07:35.014Z,2.90
2023-11-25T05:10:02.003Z,3.00
2023-11-25T05:12:28.964Z,3.00
2023-11-25T05:14:55.627Z,3.00
2023-11-25T05:17:22.770Z,3.00
2023-11-25T05:19:49.782Z,3.00
2023-11-25T05:22:16.472Z,3.00
2023-11-25T05:24:43.108Z,3.00
2023-11-25T05:27:09.714Z,3.00
2023-11-25T05:29:36.342Z,3.00
2023-11-25T05:32:04.319Z,3.00
2023-11-25T05:34:31.239Z,3.00
2023-11-25T05:36:58.250Z,2.90
2023-11-25T05:39:25.433Z,2.90
2023-11-25T05:41:52.603Z,2.90
2023-11-25T05:44:21.539Z,2.90
2023-11-25T05:46:48.348Z,2.90
2023-11-25T05:49:14.996Z,2.90
2023-11-25T05:51:45.009Z,2.90
2023-11-25T05:54:13.913Z,2.90
2023-11-25T05:56:41.771Z,2.90
2023-11-25T05:59:11.668Z,2.90
2023-11-25T06:01:39.371Z,2.90
2023-11-25T06:04:06.369Z,2.90
2023-11-25T06:06:33.236Z,2.80
2023-11-25T06:08:59.850Z,2.80
2023-11-25T06:11:28.180Z,2.80
2023-11-25T06:13:58.492Z,2.80
2023-11-25T06:16:30.236Z,2.80
2023-11-25T06:18:56.977Z,2.80
2023-11-25T06:21:24.433Z,2.80
2023-11-25T06:23:51.719Z,2.80
2023-11-25T06:26:18.476Z,2.70
2023-11-25T06:28:48.331Z,2.70
2023-11-25T06:31:16.418Z,2.70
2023-11-25T06:33:43.266Z,2.70
2023-11-25T06:36:11.343Z,2.70
2023-11-25T06:38:38.617Z,2.70
2023-11-25T06:41:05.853Z,2.70
2023-11-25T06:43:32.626Z,2.60
2023-11-25T06:46:00.676Z,2.60
2023-11-25T06:48:30.208Z,2.60
2023-11-25T06:50:59.070Z,2.60
2023-11-25T06:53:25.690Z,2.60
2023-11-25T06:55:52.305Z,2.60
2023-11-25T06:58:19.459Z,2.70
2023-11-25T07:00:46.474Z,2.70
2023-11-25T07:03:13.261Z,2.70
2023-11-25T07:05:39.938Z,2.70
2023-11-25T07:08:06.930Z,2.80
2023-11-25T07:10:35.850Z,2.90
2023-11-25T07:13:03.698Z,2.90
2023-11-25T07:15:30.745Z,3.00
2023-11-25T07:17:58.320Z,3.00
2023-11-25T07:20:25.276Z,3.10
2023-11-25T07:22:52.005Z,3.20
2023-11-25T07:25:19.735Z,3.20
2023-11-25T07:27:47.201Z,3.30
2023-11-25T07:30:15.666Z,3.40
2023-11-25T07:32:43.210Z,3.50
2023-11-25T07:35:09.934Z,3.60
2023-11-25T07:37:36.878Z,3.70
2023-11-25T07:40:10.732Z,3.80
2023-11-25T07:42:40.459Z,3.90
2023-11-25T07:45:11.316Z,3.90
2023-11-25T07:47:38.792Z,3.90
2023-11-25T07:50:06.276Z,4.00
2023-11-25T07:52:33.065Z,4.10
2023-11-25T07:54:59.788Z,4.20
2023-11-25T07:57:27.545Z,4.40
2023-11-25T07:59:54.444Z,4.50
2023-11-25T08:02:21.217Z,4.60
2023-11-25T08:04:48.163Z,4.60
2023-11-25T08:07:15.907Z,4.60
2023-11-25T08:09:43.331Z,4.70
2023-11-25T08:12:10.511Z,4.70
2023-11-25T08:14:37.337Z,4.80
2023-11-25T08:17:04.051Z,4.70
2023-11-25T08:19:30.758Z,4.70
2023-11-25T08:21:57.518Z,4.70
2023-11-25T08:24:24.340Z,4.70
2023-11-25T08:26:51.443Z,4.70
2023-11-25T08:29:19.604Z,4.80
2023-11-25T08:31:46.767Z,4.70
2023-11-25T08:34:14.654Z,4.70
2023-11-25T08:43:15.068Z,4.70
2023-11-25T08:45:43.248Z,4.70
2023-11-25T08:48:11.757Z,4.70
2023-11-25T08:50:38.583Z,4.70
2023-11-25T08:53:05.166Z,4.70
2023-11-25T08:55:31.929Z,4.70
2023-11-25T08:57:58.622Z,4.60
2023-11-25T09:00:25.325Z,4.60
2023-11-25T09:02:53.666Z,4.60
2023-11-25T09:05:27.088Z,4.60
2023-11-25T09:08:00.298Z,4.50
2023-11-25T09:10:28.477Z,4.40
2023-11-25T09:12:57.572Z,4.40
2023-11-25T09:18:32.812Z,4.40
2023-11-25T09:20:59.421Z,4.40
2023-11-25T09:23:26.224Z,4.40
2023-11-25T09:25:52.944Z,4.40
2023-11-25T09:28:19.665Z,4.40
2023-11-25T09:30:46.677Z,4.40
2023-11-25T09:33:13.345Z,4.30
2023-11-25T09:35:40.023Z,4.30
2023-11-25T09:38:07.171Z,4.20
2023-11-25T09:40:34.012Z,4.20
2023-11-25T09:43:00.787Z,4.10
2023-11-25T09:45:30.693Z,4.10
2023-11-25T09:47:57.592Z,4.00
2023-11-25T09:50:24.422Z,4.30
2023-11-25T09:52:53.680Z,4.80
2023-11-25T09:55:23.401Z,5.50
2023-11-25T09:57:54.767Z,6.10
2023-11-25T10:00:22.434Z,6.10
2023-11-25T10:02:56.985Z,5.80
2023-11-25T10:05:23.843Z,5.60
2023-11-25T10:07:50.550Z,5.40
2023-11-25T10:10:25.126Z,5.20
2023-11-25T10:12:52.263Z,5.10
2023-11-25T10:15:19.888Z,5.10
2023-11-25T10:17:46.639Z,5.10
2023-11-25T10:20:23.500Z,5.20
2023-11-25T10:22:54.508Z,5.30
2023-11-25T10:25:22.730Z,5.40
2023-11-25T10:27:52.294Z,5.40
2023-11-25T10:30:18.978Z,5.30
2023-11-25T10:32:45.842Z,5.20
2023-11-25T10:35:12.546Z,5.10
2023-11-25T10:37:42.844Z,5.00
2023-11-25T10:40:13.213Z,5.00
2023-11-25T10:42:43.555Z,5.00
2023-11-25T10:45:16.947Z,5.10
2023-11-25T10:47:44.426Z,5.10
2023-11-25T10:50:12.138Z,5.10
2023-11-25T10:52:41.087Z,5.10
2023-11-25T10:55:09.786Z,5.00
2023-11-25T10:57:37.080Z,5.00
2023-11-25T11:00:11.698Z,5.00
2023-11-25T11:02:56.331Z,5.00
2023-11-25T11:06:18.624Z,5.00
2023-11-25T11:08:50.197Z,5.00
2023-11-25T11:11:54.991Z,5.00
2023-11-25T11:17:50.097Z,5.20
2023-11-25T11:20:35.585Z,5.20
2023-11-25T11:28:06.313Z,5.10
2023-11-25T11:31:26.877Z,5.10
2023-11-25T11:33:53.702Z,5.20
2023-11-25T11:36:21.761Z,5.30
2023-11-25T11:38:48.335Z,5.30
2023-11-25T11:41:18.594Z,5.30
2023-11-25T11:44:04.414Z,5.30
2023-11-25T11:46:33.135Z,5.30
2023-11-25T11:49:02.852Z,5.30
2023-11-25T11:51:29.729Z,5.30
2023-11-25T11:54:20.996Z,5.30
2023-11-25T11:57:08.592Z,5.40
2023-11-25T12:00:14.347Z,5.50
2023-11-25T12:02:44.024Z,5.60
2023-11-25T12:05:11.763Z,5.60
2023-11-25T12:07:38.989Z,5.50
2023-11-25T12:10:07.433Z,5.50
2023-11-25T12:12:41.036Z,5.50
2023-11-25T12:15:09.339Z,5.40
2023-11-25T12:17:36.296Z,5.40
2023-11-25T12:20:03.813Z,5.30
2023-11-25T12:22:30.580Z,5.30
2023-11-25T12:24:57.285Z,5.30
2023-11-25T12:27:26.083Z,5.30
2023-11-25T12:29:52.742Z,5.30
2023-11-25T12:32:19.383Z,5.30
2023-11-25T12:34:46.581Z,5.30
2023-11-25T12:37:14.423Z,5.30
2023-11-25T12:39:41.249Z,5.40
2023-11-25T12:42:07.992Z,5.40
2023-11-25T12:44:54.917Z,5.50
2023-11-25T12:47:21.592Z,5.40
2023-11-25T12:49:50.773Z,5.40
2023-11-25T12:52:24.057Z,5.40
2023-11-25T12:54:51.048Z,5.30
2023-11-25T12:57:19.074Z,5.40
2023-11-25T12:59:47.122Z,5.40
2023-11-25T13:02:14.478Z,5.30
2023-11-25T13:04:48.217Z,5.30
2023-11-25T13:07:34.852Z,5.30
2023-11-25T13:10:03.654Z,5.40
2023-11-25T13:12:30.616Z,5.40
2023-11-25T13:14:58.103Z,5.40
2023-11-25T13:17:29.109Z,5.50
2023-11-25T13:19:56.891Z,5.50
2023-11-25T13:22:23.594Z,5.60
2023-11-25T13:24:50.430Z,5.70
2023-11-25T13:27:18.668Z,5.80
2023-11-25T13:29:45.574Z,5.90
2023-11-25T13:32:12.303Z,5.90
2023-11-25T13:34:42.092Z,6.00
2023-11-25T13:37:08.800Z,6.10
2023-11-25T13:39:35.480Z,6.10
2023-11-25T13:42:02.536Z,6.20
2023-11-25T13:44:29.119Z,6.30
2023-11-25T13:46:55.820Z,6.30
2023-11-25T13:49:22.985Z,6.40
2023-11-25T13:51:49.611Z,6.40
2023-11-25T13:54:16.519Z,6.50
2023-11-25T13:56:43.132Z,6.50
2023-11-25T13:59:09.662Z,6.50
2023-11-25T14:01:36.999Z,6.40
2023-11-25T14:04:04.082Z,6.40
2023-11-25T14:06:31.355Z,6.40
2023-11-25T14:08:59.955Z,6.40
2023-11-25T14:11:27.052Z,6.50
2023-11-25T14:13:54.011Z,6.50
2023-11-25T14:16:21.792Z,6.50
2023-11-25T14:18:49.045Z,6.50
2023-11-25T14:21:15.731Z,6.50
2023-11-25T14:23:42.283Z,6.40
2023-11-25T14:26:09.961Z,6.30
2023-11-25T14:28:36.623Z,6.30
2023-11-25T14:31:03.303Z,6.20
2023-11-25T14:33:29.970Z,6.10
2023-11-25T14:35:56.686Z,6.10
2023-11-25T14:38:24.501Z,6.10
2023-11-25T14:40:51.201Z,6.10
2023-11-25T14:43:17.959Z,6.10
2023-11-25T14:45:44.606Z,6.10
2023-11-25T14:48:11.900Z,6.10
2023-11-25T14:50:42.021Z,6.10
2023-11-25T14:53:08.902Z,6.10
2023-11-25T14:55:35.794Z,6.10
2023-11-25T14:58:03.929Z,6.10
2023-11-25T15:00:30.973Z,6.00
2023-11-25T15:03:00.904Z,6.00
2023-11-25T15:05:27.782Z,5.90
2023-11-25T15:07:54.900Z,5.90
2023-11-25T15:10:25.964Z,5.90
2023-11-25T15:12:53.940Z,5.90
2023-11-25T15:15:20.673Z,5.80
2023-11-25T15:17:47.443Z,5.80
2023-11-25T15:20:15.484Z,5.80
2023-11-25T15:22:42.433Z,5.80
2023-11-25T15:25:09.511Z,5.80
2023-11-25T15:27:36.174Z,5.70
2023-11-25T15:30:11.488Z,5.70
2023-11-25T15:32:43.465Z,5.70
2023-11-25T15:35:11.121Z,5.60
2023-11-25T15:37:38.261Z,5.60
2023-11-25T15:40:05.508Z,5.50
2023-11-25T15:42:32.079Z,5.50
2023-11-25T15:44:58.702Z,5.40
2023-11-25T15:47:25.303Z,5.40
2023-11-25T15:49:51.957Z,5.30
2023-11-25T15:52:19.872Z,5.30
2023-11-25T15:54:46.517Z,5.20
2023-11-25T15:57:13.084Z,5.20
2023-11-25T15:59:43.252Z,5.20
2023-11-25T16:02:10.353Z,5.10
2023-11-25T16:04:38.149Z,5.10
2023-11-25T16:07:07.840Z,5.10
2023-11-25T16:09:36.711Z,5.10
2023-11-25T16:12:03.970Z,5.00
2023-11-25T16:14:30.757Z,5.00
2023-11-25T16:16:57.356Z,5.00
2023-11-25T16:19:23.975Z,5.00
2023-11-25T16:21:53.729Z,4.90
2023-11-25T16:24:20.356Z,5.00
2023-11-25T16:26:47.117Z,5.00
2023-11-25T16:29:13.806Z,5.00
2023-11-25T16:31:41.026Z,5.00
2023-11-25T16:34:07.914Z,5.00
2023-11-25T16:36:35.641Z,5.00
2023-11-25T16:39:02.389Z,5.00
2023-11-25T16:41:29.558Z,4.90
2023-11-25T16:43:57.680Z,4.90
2023-11-25T16:46:24.514Z,4.90
2023-11-25T16:51:59.302Z,4.90
2023-11-25T16:54:26.431Z,4.80
2023-11-25T16:56:53.183Z,4.80
2023-11-25T16:59:20.100Z,4.80
2023-11-25T17:01:48.063Z,4.80
2023-11-25T17:04:15.686Z,4.80
2023-11-25T17:06:42.688Z,4.80
2023-11-25T17:09:09.585Z,4.80
2023-11-25T17:11:36.383Z,4.90
2023-11-25T17:14:03.178Z,4.90
2023-11-25T17:16:31.267Z,4.90
2023-11-25T17:18:58.878Z,5.00
2023-11-25T17:21:25.437Z,5.00
2023-11-25T17:23:52.179Z,5.10
2023-11-25T17:26:20.440Z,5.10
2023-11-25T17:28:47.202Z,5.10
2023-11-25T17:31:13.789Z,5.20
2023-11-25T17:33:40.877Z,5.20
2023-11-25T17:36:07.917Z,5.20
2023-11-25T17:38:34.558Z,5.20
2023-11-25T17:41:01.388Z,5.20
2023-11-25T17:43:28.080Z,5.30
2023-11-25T17:45:55.056Z,5.30
2023-11-25T17:48:21.676Z,5.40
2023-11-25T17:50:48.238Z,5.40
2023-11-25T17:53:15.236Z,5.50
2023-11-25T17:55:42.027Z,5.40
2023-11-25T17:58:08.726Z,5.50
2023-11-25T18:00:35.310Z,5.50
2023-11-25T18:03:02.061Z,5.50
2023-11-25T18:05:28.782Z,5.50
2023-11-25T18:07:55.419Z,5.50
2023-11-25T18:10:22.114Z,5.50
2023-11-25T18:12:48.774Z,5.40
2023-11-25T18:15:15.404Z,5.40
2023-11-25T18:17:42.200Z,5.40
2023-11-25T18:20:12.165Z,5.30
2023-11-25T18:22:39.803Z,5.30
2023-11-25T18:25:06.973Z,5.20
2023-11-25T18:27:33.551Z,5.20
2023-11-25T18:30:00.108Z,5.10
2023-11-25T18:32:26.819Z,5.10
2023-11-25T18:34:53.390Z,5.10
2023-11-25T18:37:19.911Z,5.10
2023-11-25T18:39:46.538Z,5.00
2023-11-25T18:42:14.921Z,5.00
2023-11-25T18:44:42.777Z,5.00
2023-11-25T18:47:09.564Z,5.00
2023-11-25T18:49:36.304Z,5.00
2023-11-25T18:52:02.986Z,5.00
2023-11-25T18:54:31.773Z,5.10
2023-11-25T18:57:00.590Z,5.10
2023-11-25T18:59:27.209Z,5.00
2023-11-25T19:01:54.178Z,5.10
2023-11-25T19:04:23.110Z,5.00
2023-11-25T19:06:50.462Z,5.00
2023-11-25T19:09:18.692Z,5.00
2023-11-25T19:11:46.714Z,5.00
2023-11-25T19:14:16.323Z,5.00
2023-11-25T19:16:43.204Z,5.00
2023-11-25T19:19:10.981Z,5.00
2023-11-25T19:21:37.727Z,4.90
2023-11-25T19:24:04.721Z,5.00
2023-11-25T19:26:31.412Z,5.00
2023-11-25T19:28:58.106Z,4.90
2023-11-25T19:31:24.763Z,4.90
2023-11-25T19:33:52.548Z,4.90
2023-11-25T19:36:19.413Z,4.90
2023-11-25T19:38:46.360Z,4.90
2023-11-25T19:41:13.148Z,4.90
2023-11-25T19:43:39.867Z,4.90
2023-11-25T19:46:06.745Z,4.90
2023-11-25T19:48:34.261Z,4.90
2023-11-25T19:51:00.845Z,4.90
2023-11-25T19:53:49.100Z,4.90
2023-11-25T19:56:14.104Z,4.90
2023-11-25T19:58:41.760Z,4.90
2023-11-25T20:01:09.088Z,4.90
2023-11-25T20:03:35.795Z,4.90
2023-11-25T20:06:02.462Z,4.90
2023-11-25T20:08:29.180Z,4.80
2023-11-25T20:10:55.751Z,4.80
2023-11-25T20:13:22.365Z,4.80
2023-11-25T20:15:48.975Z,4.80
2023-11-25T20:18:15.688Z,4.70
2023-11-25T20:20:42.752Z,4.70
2023-11-25T20:23:09.602Z,4.60
2023-11-25T20:25:36.384Z,4.50
2023-11-25T20:28:03.371Z,4.40
2023-11-25T20:30:30.120Z,4.30
2023-11-25T20:32:56.966Z,4.20
2023-11-25T20:35:24.812Z,4.10
2023-11-25T20:37:51.539Z,4.10
2023-11-25T20:40:18.341Z,4.00
2023-11-25T20:42:45.214Z,4.00
2023-11-25T20:45:12.341Z,4.00
2023-11-25T20:47:38.956Z,4.00
2023-11-25T20:50:06.123Z,3.90
2023-11-25T20:52:33.182Z,3.90
2023-11-25T20:54:59.804Z,3.80
2023-11-25T20:57:26.370Z,3.80
2023-11-25T20:59:52.986Z,3.70
2023-11-25T21:02:19.854Z,3.70
2023-11-25T21:04:46.619Z,3.60
2023-11-25T21:07:13.239Z,3.60
2023-11-25T21:09:39.928Z,3.50
2023-11-25T21:12:07.283Z,3.50
2023-11-25T21:14:33.839Z,3.50
2023-11-25T21:17:04.708Z,3.40
2023-11-25T21:19:31.382Z,3.40
2023-11-25T21:21:59.310Z,3.40
2023-11-25T21:24:25.974Z,3.30
2023-11-25T21:26:52.614Z,3.30
2023-11-25T21:29:19.925Z,3.40
2023-11-25T21:31:48.031Z,3.40
2023-11-25T21:34:15.081Z,3.40
2023-11-25T21:36:41.723Z,3.30
2023-11-25T21:39:11.777Z,3.30
2023-11-25T21:41:38.766Z,3.30
2023-11-25T21:44:05.451Z,3.20
2023-11-25T21:46:32.161Z,3.20
2023-11-25T21:48:58.801Z,3.10
2023-11-25T21:51:25.422Z,3.10
2023-11-25T21:53:52.491Z,3.10
2023-11-25T21:56:19.323Z,3.00
2023-11-25T21:58:46.027Z,3.10
2023-11-25T22:01:12.624Z,3.00
2023-11-25T22:03:40.014Z,3.00
2023-11-25T22:06:07.447Z,2.90
2023-11-25T22:08:34.233Z,2.90
2023-11-25T22:11:01.316Z,2.90
2023-11-25T22:13:28.158Z,2.90
2023-11-25T22:15:58.333Z,2.90
2023-11-25T22:18:24.963Z,2.90
2023-11-25T22:20:51.497Z,2.90
2023-11-25T22:23:18.265Z,2.90
2023-11-25T22:25:52.302Z,2.80
2023-11-25T22:28:19.029Z,2.80
2023-11-25T22:30:45.715Z,2.80
2023-11-25T22:33:12.502Z,2.80
2023-11-25T22:35:48.043Z,2.80
2023-11-25T22:38:20.693Z,2.80
2023-11-25T22:40:49.000Z,2.70
2023-11-25T22:43:15.639Z,2.70
2023-11-25T22:45:42.271Z,2.60
2023-11-25T22:48:08.905Z,2.60
2023-11-25T22:50:35.488Z,2.50
2023-11-25T22:53:02.186Z,2.40
2023-11-25T22:55:29.246Z,2.40
2023-11-25T22:57:55.884Z,2.20
2023-11-25T23:00:30.057Z,2.20
2023-11-25T23:02:56.880Z,2.10
2023-11-25T23:05:23.615Z,2.10
2023-11-25T23:07:50.385Z,2.10
2023-11-25T23:10:17.221Z,2.10
2023-11-25T23:12:43.797Z,2.00
2023-11-25T23:15:10.919Z,1.90
2023-11-25T23:17:38.073Z,1.90
2023-11-25T23:20:12.177Z,1.80
2023-11-25T23:22:39.427Z,1.80
2023-11-25T23:25:07.388Z,1.90
2023-11-25T23:27:33.946Z,1.90
2023-11-25T23:30:01.358Z,1.90
2023-11-25T23:32:28.079Z,1.90
2023-11-25T23:34:54.709Z,1.90
2023-11-25T23:37:21.342Z,2.00
2023-11-25T23:39:48.057Z,2.00
2023-11-25T23:42:15.617Z,2.10
2023-11-25T23:44:42.187Z,2.10
2023-11-25T23:47:08.773Z,2.20
2023-11-25T23:49:36.038Z,2.20
2023-11-25T23:52:03.614Z,2.20
2023-11-25T23:54:30.171Z,2.20
2023-11-25T23:56:56.726Z,2.30
2023-11-25T23:59:23.342Z,2.30
